createdAt,value
2022-11-16T00:00:28.725Z,100398.84
2022-11-16T00:04:30.374Z,100384.38
2022-11-16T00:08:34.747Z,100383.63
2022-11-16T00:12:36.647Z,100384.53
2022-11-16T00:16:38.727Z,100385.31
2022-11-16T00:20:40.164Z,100383.56
2022-11-16T00:24:41.591Z,100379.75
2022-11-16T00:28:43.105Z,100380.88
2022-11-16T00:32:44.495Z,100382.34
2022-11-16T00:36:46.884Z,100384.63
2022-11-16T00:40:48.795Z,100385.53
2022-11-16T00:44:50.348Z,100384.56
2022-11-16T00:48:51.798Z,100381.09
2022-11-16T00:52:53.802Z,100382.72
2022-11-16T00:56:55.234Z,100384.56
2022-11-16T01:00:56.746Z,100384.56
2022-11-16T01:04:58.265Z,100381.97
2022-11-16T01:09:00.186Z,100375.41
2022-11-16T01:13:01.598Z,100378.41
2022-11-16T01:17:03.950Z,100371.97
2022-11-16T01:21:08.695Z,100369.22
2022-11-16T01:25:11.990Z,100381.63
2022-11-16T01:29:13.690Z,100385.78
2022-11-16T01:33:15.139Z,100380.63
2022-11-16T01:37:17.503Z,100371.97
2022-11-16T01:41:22.880Z,100369.28
2022-11-16T01:45:37.494Z,100354.13
2022-11-16T01:49:46.123Z,100347.19
2022-11-16T01:53:47.679Z,100344.13
2022-11-16T01:57:50.000Z,100347.47
2022-11-16T02:01:51.418Z,100341.59
2022-11-16T02:06:26.552Z,100334.28
2022-11-16T02:10:49.821Z,100324.47
2022-11-16T02:15:24.375Z,100314.22
2022-11-16T02:19:59.411Z,100318.06
2022-11-16T02:24:19.203Z,100306.09
2022-11-16T02:28:49.776Z,100295.50
2022-11-16T02:33:01.569Z,100299.50
2022-11-16T02:37:06.455Z,100293.75
2022-11-16T02:41:21.043Z,100290.88
2022-11-16T02:45:27.843Z,100293.47
2022-11-16T02:49:33.884Z,100285.38
2022-11-16T02:53:50.527Z,100292.16
2022-11-16T02:58:07.329Z,100293.00
2022-11-16T03:02:31.935Z,100288.97
2022-11-16T03:06:36.122Z,100293.94
2022-11-16T03:10:58.622Z,100292.59
2022-11-16T03:15:04.865Z,100292.81
2022-11-16T03:19:10.526Z,100294.78
2022-11-16T03:23:13.755Z,100304.72
2022-11-16T03:27:39.149Z,100300.25
2022-11-16T03:31:48.943Z,100298.75
2022-11-16T03:36:01.261Z,100300.13
2022-11-16T03:40:04.912Z,100288.19
2022-11-16T03:44:08.907Z,100286.44
2022-11-16T03:48:11.736Z,100269.47
2022-11-16T03:52:15.425Z,100270.28
2022-11-16T03:56:16.895Z,100258.22
2022-11-16T04:00:18.544Z,100243.47
2022-11-16T04:04:38.586Z,100251.25
2022-11-16T04:08:58.318Z,100249.72
2022-11-16T04:13:19.310Z,100250.00
2022-11-16T04:17:42.551Z,100250.94
2022-11-16T04:22:09.917Z,100246.25
2022-11-16T04:26:11.660Z,100245.72
2022-11-16T04:30:13.448Z,100246.78
2022-11-16T04:34:33.216Z,100250.88
2022-11-16T04:38:35.046Z,100258.59
2022-11-16T04:42:36.910Z,100251.63
2022-11-16T04:46:56.858Z,100243.22
2022-11-16T04:50:58.272Z,100253.22
2022-11-16T04:54:59.917Z,100258.84
2022-11-16T04:59:01.405Z,100263.28
2022-11-16T05:03:04.732Z,100254.56
2022-11-16T05:07:11.203Z,100247.59
2022-11-16T05:11:12.782Z,100238.06
2022-11-16T05:15:14.344Z,100245.63
2022-11-16T05:19:34.276Z,100239.66
2022-11-16T05:23:54.450Z,100247.16
2022-11-16T05:27:55.917Z,100246.34
2022-11-16T05:31:58.298Z,100253.81
2022-11-16T05:35:59.746Z,100267.47
2022-11-16T05:40:01.262Z,100263.66
2022-11-16T05:44:02.767Z,100272.75
2022-11-16T05:48:04.453Z,100268.28
2022-11-16T05:52:05.912Z,100271.50
2022-11-16T05:56:07.588Z,100272.75
2022-11-16T06:00:09.691Z,100272.75
2022-11-16T06:04:12.235Z,100284.88
2022-11-16T06:08:13.733Z,100280.22
2022-11-16T06:12:15.256Z,100274.97
2022-11-16T06:16:17.029Z,100271.19
2022-11-16T06:20:18.595Z,100274.19
2022-11-16T06:24:20.035Z,100276.00
2022-11-16T06:28:22.113Z,100285.06
2022-11-16T06:32:23.552Z,100289.44
2022-11-16T06:36:25.135Z,100285.75
2022-11-16T06:40:26.592Z,100292.31
2022-11-16T06:44:28.034Z,100294.97
2022-11-16T06:48:30.854Z,100300.56
2022-11-16T06:52:32.478Z,100300.66
2022-11-16T06:56:35.343Z,100299.28
2022-11-16T07:00:36.885Z,100293.94
2022-11-16T07:04:38.398Z,100295.13
2022-11-16T07:08:39.956Z,100291.19
2022-11-16T07:12:41.440Z,100293.72
2022-11-16T07:16:43.089Z,100294.66
2022-11-16T07:20:44.592Z,100286.41
2022-11-16T07:24:46.147Z,100290.53
2022-11-16T07:28:48.555Z,100295.03
2022-11-16T07:32:50.262Z,100298.34
2022-11-16T07:36:51.717Z,100300.53
2022-11-16T07:40:53.223Z,100304.78
2022-11-16T07:44:54.661Z,100306.28
2022-11-16T07:48:56.889Z,100311.88
2022-11-16T07:52:58.356Z,100304.56
2022-11-16T07:56:59.996Z,100310.06
2022-11-16T08:01:14.537Z,100310.56
2022-11-16T08:05:16.206Z,100309.88
2022-11-16T08:09:17.762Z,100307.50
2022-11-16T08:13:19.207Z,100300.03
2022-11-16T08:17:20.734Z,100300.13
2022-11-16T08:21:22.175Z,100292.22
2022-11-16T08:25:23.650Z,100292.84
2022-11-16T08:29:26.392Z,100280.53
2022-11-16T08:33:29.375Z,100278.78
2022-11-16T08:37:31.959Z,100275.47
2022-11-16T08:41:35.804Z,100274.22
2022-11-16T08:45:38.369Z,100271.34
2022-11-16T08:49:41.957Z,100262.50
2022-11-16T08:53:47.881Z,100251.81
2022-11-16T08:57:49.330Z,100245.50
2022-11-16T09:01:50.854Z,100245.09
2022-11-16T09:05:52.468Z,100244.72
2022-11-16T09:09:53.914Z,100236.47
2022-11-16T09:13:55.949Z,100231.66
2022-11-16T09:17:57.448Z,100225.91
2022-11-16T09:21:58.878Z,100232.19
2022-11-16T09:26:02.268Z,100228.66
2022-11-16T09:30:05.286Z,100230.25
2022-11-16T09:34:07.146Z,100233.81
2022-11-16T09:38:16.021Z,100222.91
2022-11-16T09:42:52.638Z,100228.66
2022-11-16T09:46:57.700Z,100228.31
2022-11-16T09:51:02.853Z,100218.78
2022-11-16T09:55:27.355Z,100218.75
2022-11-16T09:59:38.517Z,100214.19
2022-11-16T10:03:45.246Z,100203.53
2022-11-16T10:07:50.131Z,100191.38
2022-11-16T10:11:54.502Z,100197.34
2022-11-16T10:16:44.722Z,100187.59
2022-11-16T10:21:07.244Z,100197.56
2022-11-16T10:25:16.493Z,100190.81
2022-11-16T10:29:47.353Z,100195.16
2022-11-16T10:33:53.849Z,100189.53
2022-11-16T10:37:58.960Z,100191.50
2022-11-16T10:42:07.710Z,100189.88
2022-11-16T10:46:16.569Z,100187.81
2022-11-16T10:50:40.821Z,100191.34
2022-11-16T10:54:44.423Z,100187.13
2022-11-16T10:59:05.231Z,100187.56
2022-11-16T11:03:07.280Z,100179.09
2022-11-16T11:07:31.468Z,100186.22
2022-11-16T11:11:51.526Z,100163.94
2022-11-16T11:16:13.776Z,100163.16
2022-11-16T11:20:15.339Z,100163.50
2022-11-16T11:24:43.397Z,100158.44
2022-11-16T11:28:49.090Z,100157.09
2022-11-16T11:32:52.785Z,100161.44
2022-11-16T11:36:58.205Z,100159.94
2022-11-16T11:41:02.273Z,100156.72
2022-11-16T11:45:08.969Z,100165.56
2022-11-16T11:49:19.611Z,100170.84
2022-11-16T11:53:43.325Z,100172.81
2022-11-16T11:57:47.700Z,100177.72
2022-11-16T12:01:58.227Z,100169.44
2022-11-16T12:06:02.589Z,100169.59
2022-11-16T12:10:13.314Z,100163.38
2022-11-16T12:14:17.815Z,100168.09
2022-11-16T12:18:41.095Z,100166.63
2022-11-16T12:23:20.894Z,100168.06
2022-11-16T12:27:51.539Z,100152.00
2022-11-16T12:32:00.957Z,100152.81
2022-11-16T12:36:15.837Z,100158.22
2022-11-16T12:40:32.635Z,100166.50
2022-11-16T12:45:05.890Z,100163.50
2022-11-16T12:49:24.383Z,100158.22
2022-11-16T12:53:25.788Z,100157.75
2022-11-16T12:57:27.449Z,100157.28
2022-11-16T13:01:56.263Z,100158.44
2022-11-16T13:06:12.293Z,100153.53
2022-11-16T13:10:24.522Z,100148.34
2022-11-16T13:14:39.434Z,100137.22
2022-11-16T13:18:42.870Z,100145.00
2022-11-16T13:22:57.555Z,100141.47
2022-11-16T13:27:18.245Z,100136.53
2022-11-16T13:31:28.526Z,100130.66
2022-11-16T13:35:30.269Z,100134.88
2022-11-16T13:39:50.361Z,100129.16
2022-11-16T13:43:51.951Z,100128.97
2022-11-16T13:47:56.066Z,100134.69
2022-11-16T13:52:17.187Z,100132.25
2022-11-16T13:56:28.730Z,100123.66
2022-11-16T14:00:33.735Z,100126.28
2022-11-16T14:04:38.949Z,100130.41
2022-11-16T14:08:40.433Z,100125.13
2022-11-16T14:12:41.833Z,100112.19
2022-11-16T14:16:48.885Z,100118.94
2022-11-16T14:20:57.060Z,100107.94
2022-11-16T14:25:09.479Z,100115.63
2022-11-16T14:29:29.377Z,100122.28
2022-11-16T14:33:33.987Z,100124.56
2022-11-16T14:37:42.244Z,100124.09
2022-11-16T14:41:45.319Z,100112.28
2022-11-16T14:45:55.078Z,100118.72
2022-11-16T14:49:57.166Z,100112.97
2022-11-16T14:54:05.039Z,100114.56
2022-11-16T14:58:24.658Z,100110.69
2022-11-16T15:02:27.633Z,100108.38
2022-11-16T15:06:35.433Z,100101.28
2022-11-16T15:10:36.996Z,100110.69
2022-11-16T15:14:45.728Z,100105.19
2022-11-16T15:19:01.572Z,100104.75
2022-11-16T15:23:05.012Z,100109.44
2022-11-16T15:27:06.377Z,100114.38
2022-11-16T15:31:14.892Z,100121.84
2022-11-16T15:35:21.637Z,100121.88
2022-11-16T15:39:25.645Z,100117.97
2022-11-16T15:43:45.133Z,100124.25
2022-11-16T15:47:56.470Z,100119.91
2022-11-16T15:51:58.832Z,100121.53
2022-11-16T15:56:00.638Z,100118.75
2022-11-16T16:00:02.461Z,100111.88
2022-11-16T16:04:05.987Z,100117.28
2022-11-16T16:08:27.929Z,100108.47
2022-11-16T16:12:29.393Z,100112.81
2022-11-16T16:16:55.541Z,100122.00
2022-11-16T16:20:56.996Z,100112.91
2022-11-16T16:24:58.583Z,100116.38
2022-11-16T16:29:00.019Z,100116.38
2022-11-16T16:33:02.378Z,100118.41
2022-11-16T16:37:03.934Z,100124.28
2022-11-16T16:41:06.468Z,100131.00
2022-11-16T16:45:15.903Z,100130.94
2022-11-16T16:49:17.359Z,100128.38
2022-11-16T16:53:18.853Z,100115.81
2022-11-16T16:57:20.290Z,100117.72
2022-11-16T17:01:24.231Z,100119.22
2022-11-16T17:05:26.401Z,100122.34
2022-11-16T17:09:27.861Z,100121.16
2022-11-16T17:13:29.565Z,100123.72
2022-11-16T17:17:31.533Z,100122.00
2022-11-16T17:21:33.028Z,100113.06
2022-11-16T17:25:36.647Z,100107.97
2022-11-16T17:29:38.105Z,100112.13
2022-11-16T17:33:43.190Z,100118.56
2022-11-16T17:37:44.609Z,100122.91
2022-11-16T17:41:46.102Z,100131.41
2022-11-16T17:45:47.572Z,100128.38
2022-11-16T17:49:49.054Z,100126.66
2022-11-16T17:53:51.048Z,100127.03
2022-11-16T17:57:52.521Z,100126.34
2022-11-16T18:01:53.962Z,100126.56
2022-11-16T18:06:11.138Z,100124.16
2022-11-16T18:10:17.856Z,100123.81
2022-11-16T18:14:20.751Z,100123.16
2022-11-16T18:18:22.218Z,100121.97
2022-11-16T18:22:24.213Z,100134.22
2022-11-16T18:26:25.740Z,100131.84
2022-11-16T18:30:27.257Z,100124.59
2022-11-16T18:34:28.824Z,100110.59
2022-11-16T18:38:30.879Z,100122.44
2022-11-16T18:42:32.334Z,100117.50
2022-11-16T18:46:33.878Z,100109.47
2022-11-16T18:50:35.344Z,100101.78
2022-11-16T18:54:36.869Z,100105.69
2022-11-16T18:58:54.648Z,100120.28
2022-11-16T19:02:56.164Z,100114.63
2022-11-16T19:06:57.645Z,100105.25
2022-11-16T19:11:06.791Z,100118.31
2022-11-16T19:15:08.490Z,100107.56
2022-11-16T19:19:10.067Z,100108.81
2022-11-16T19:23:11.552Z,100104.09
2022-11-16T19:27:13.068Z,100113.16
2022-11-16T19:31:26.829Z,100115.56
2022-11-16T19:35:28.416Z,100107.06
2022-11-16T19:39:29.905Z,100105.47
2022-11-16T19:43:32.141Z,100108.81
2022-11-16T19:47:33.787Z,100112.44
2022-11-16T19:51:35.430Z,100106.50
2022-11-16T19:55:36.925Z,100115.09
2022-11-16T19:59:38.626Z,100117.84
2022-11-16T20:03:43.155Z,100108.81
2022-11-16T20:07:44.689Z,100118.41
2022-11-16T20:11:46.183Z,100115.56
2022-11-16T20:15:47.733Z,100125.88
2022-11-16T20:19:49.148Z,100122.66
2022-11-16T20:23:54.037Z,100129.09
2022-11-16T20:27:55.575Z,100123.47
2022-11-16T20:31:57.145Z,100124.38
2022-11-16T20:36:03.626Z,100134.81
2022-11-16T20:40:05.700Z,100129.09
2022-11-16T20:44:11.953Z,100128.16
2022-11-16T20:48:17.534Z,100134.13
2022-11-16T20:52:19.165Z,100130.13
2022-11-16T20:56:20.914Z,100131.84
2022-11-16T21:00:22.507Z,100123.91
2022-11-16T21:04:23.999Z,100133.44
2022-11-16T21:08:26.157Z,100130.44
2022-11-16T21:12:46.382Z,100136.53
2022-11-16T21:16:48.064Z,100134.13
2022-11-16T21:20:56.372Z,100136.84
2022-11-16T21:25:01.014Z,100134.00
2022-11-16T21:29:02.817Z,100133.91
2022-11-16T21:33:04.294Z,100135.25
2022-11-16T21:37:05.739Z,100132.97
2022-11-16T21:41:08.552Z,100137.53
2022-11-16T21:45:10.615Z,100139.59
2022-11-16T21:49:12.111Z,100136.84
2022-11-16T21:53:13.601Z,100143.50
2022-11-16T21:57:15.482Z,100144.84
2022-11-16T22:01:17.181Z,100146.44
2022-11-16T22:05:37.792Z,100122.28
2022-11-16T22:09:39.309Z,100141.59
2022-11-16T22:13:41.644Z,100135.16
2022-11-16T22:17:44.186Z,100127.34
2022-11-16T22:21:45.678Z,100142.16
2022-11-16T22:25:47.131Z,100137.66
2022-11-16T22:29:48.683Z,100130.31
2022-11-16T22:33:53.759Z,100131.88
2022-11-16T22:37:55.978Z,100126.81
2022-11-16T22:41:57.582Z,100128.97
2022-11-16T22:46:04.478Z,100115.59
2022-11-16T22:50:06.328Z,100108.81
2022-11-16T22:54:11.435Z,100115.84
2022-11-16T22:58:12.964Z,100113.16
2022-11-16T23:02:14.479Z,100113.78
2022-11-16T23:06:16.605Z,100117.88
2022-11-16T23:10:18.161Z,100097.69
2022-11-16T23:14:38.135Z,100100.34
2022-11-16T23:18:39.627Z,100107.97
2022-11-16T23:22:59.690Z,100094.84
2022-11-16T23:27:21.487Z,100100.91
2022-11-16T23:31:23.064Z,100090.44
2022-11-16T23:35:24.663Z,100088.88
2022-11-16T23:39:26.122Z,100084.38
2022-11-16T23:43:46.189Z,100090.50
2022-11-16T23:47:47.648Z,100083.06
2022-11-16T23:51:49.209Z,100077.16
2022-11-16T23:55:51.029Z,100076.91
2022-11-16T23:59:52.628Z,100077.31
